sensor_id;sensor_type;location;lat;lon;timestamp;P1;durP1;ratioP1;P2;durP2;ratioP2
74512;SDS011;62992;52.052;8.550;2022-10-14T00:00:31;39.25;;;21.33;;
74512;SDS011;62992;52.052;8.550;2022-10-14T00:02:57;38.03;;;21.55;;
74512;SDS011;62992;52.052;8.550;2022-10-14T00:05:22;38.10;;;21.98;;
74512;SDS011;62992;52.052;8.550;2022-10-14T00:07:48;38.90;;;21.63;;
74512;SDS011;62992;52.052;8.550;2022-10-14T00:10:13;39.25;;;21.42;;
74512;SDS011;62992;52.052;8.550;2022-10-14T00:12:39;39.72;;;20.98;;
74512;SDS011;62992;52.052;8.550;2022-10-14T00:15:05;36.83;;;21.52;;
74512;SDS011;62992;52.052;8.550;2022-10-14T00:17:31;40.17;;;22.90;;
74512;SDS011;62992;52.052;8.550;2022-10-14T00:19:57;40.72;;;23.42;;
74512;SDS011;62992;52.052;8.550;2022-10-14T00:22:23;40.08;;;22.55;;
74512;SDS011;62992;52.052;8.550;2022-10-14T00:24:49;38.78;;;22.88;;
74512;SDS011;62992;52.052;8.550;2022-10-14T00:27:15;40.72;;;22.15;;
74512;SDS011;62992;52.052;8.550;2022-10-14T00:29:40;44.80;;;23.02;;
74512;SDS011;62992;52.052;8.550;2022-10-14T00:32:06;40.05;;;21.52;;
74512;SDS011;62992;52.052;8.550;2022-10-14T00:34:32;36.97;;;21.42;;
74512;SDS011;62992;52.052;8.550;2022-10-14T00:36:57;39.42;;;21.25;;
74512;SDS011;62992;52.052;8.550;2022-10-14T00:39:23;40.63;;;21.50;;
74512;SDS011;62992;52.052;8.550;2022-10-14T00:41:49;37.53;;;21.73;;
74512;SDS011;62992;52.052;8.550;2022-10-14T00:46:46;35.50;;;21.42;;
74512;SDS011;62992;52.052;8.550;2022-10-14T00:49:26;43.10;;;22.98;;
74512;SDS011;62992;52.052;8.550;2022-10-14T00:52:02;40.88;;;22.70;;
74512;SDS011;62992;52.052;8.550;2022-10-14T00:54:34;39.40;;;21.77;;
74512;SDS011;62992;52.052;8.550;2022-10-14T00:57:04;37.42;;;21.02;;
74512;SDS011;62992;52.052;8.550;2022-10-14T00:59:30;36.47;;;21.50;;
74512;SDS011;62992;52.052;8.550;2022-10-14T01:01:58;38.42;;;21.27;;
74512;SDS011;62992;52.052;8.550;2022-10-14T01:04:24;36.30;;;21.45;;
74512;SDS011;62992;52.052;8.550;2022-10-14T01:21:00;34.72;;;19.40;;
74512;SDS011;62992;52.052;8.550;2022-10-14T01:32:13;35.65;;;18.70;;
74512;SDS011;62992;52.052;8.550;2022-10-14T01:35:00;34.65;;;18.92;;
74512;SDS011;62992;52.052;8.550;2022-10-14T01:37:36;40.25;;;20.98;;
74512;SDS011;62992;52.052;8.550;2022-10-14T01:40:06;37.38;;;19.33;;
74512;SDS011;62992;52.052;8.550;2022-10-14T01:42:37;33.80;;;19.38;;
74512;SDS011;62992;52.052;8.550;2022-10-14T01:45:07;39.03;;;20.42;;
74512;SDS011;62992;52.052;8.550;2022-10-14T01:47:38;36.22;;;19.35;;
74512;SDS011;62992;52.052;8.550;2022-10-14T01:50:09;37.78;;;21.73;;
74512;SDS011;62992;52.052;8.550;2022-10-14T01:52:40;38.58;;;20.40;;
74512;SDS011;62992;52.052;8.550;2022-10-14T01:55:12;35.65;;;19.60;;
74512;SDS011;62992;52.052;8.550;2022-10-14T01:57:40;36.33;;;19.27;;
74512;SDS011;62992;52.052;8.550;2022-10-14T02:00:08;37.85;;;20.23;;
74512;SDS011;62992;52.052;8.550;2022-10-14T02:02:35;36.05;;;19.92;;
74512;SDS011;62992;52.052;8.550;2022-10-14T02:05:03;42.50;;;20.95;;
74512;SDS011;62992;52.052;8.550;2022-10-14T02:07:39;38.33;;;19.60;;
74512;SDS011;62992;52.052;8.550;2022-10-14T02:10:24;40.47;;;20.02;;
74512;SDS011;62992;52.052;8.550;2022-10-14T02:13:13;42.72;;;21.45;;
74512;SDS011;62992;52.052;8.550;2022-10-14T02:23:25;43.58;;;19.88;;
74512;SDS011;62992;52.052;8.550;2022-10-14T02:25:56;40.92;;;21.30;;
74512;SDS011;62992;52.052;8.550;2022-10-14T02:28:23;38.92;;;20.98;;
74512;SDS011;62992;52.052;8.550;2022-10-14T02:30:57;38.13;;;20.55;;
74512;SDS011;62992;52.052;8.550;2022-10-14T02:33:32;37.78;;;20.30;;
74512;SDS011;62992;52.052;8.550;2022-10-14T02:36:03;37.97;;;19.85;;
74512;SDS011;62992;52.052;8.550;2022-10-14T02:38:31;35.97;;;19.38;;
74512;SDS011;62992;52.052;8.550;2022-10-14T02:40:58;36.35;;;19.15;;
74512;SDS011;62992;52.052;8.550;2022-10-14T02:43:27;38.25;;;21.42;;
74512;SDS011;62992;52.052;8.550;2022-10-14T02:45:55;42.92;;;21.98;;
74512;SDS011;62992;52.052;8.550;2022-10-14T02:48:22;42.78;;;20.92;;
74512;SDS011;62992;52.052;8.550;2022-10-14T02:50:48;45.53;;;22.58;;
74512;SDS011;62992;52.052;8.550;2022-10-14T02:53:13;43.90;;;22.55;;
74512;SDS011;62992;52.052;8.550;2022-10-14T02:55:41;50.42;;;24.05;;
74512;SDS011;62992;52.052;8.550;2022-10-14T02:58:06;49.25;;;23.90;;
74512;SDS011;62992;52.052;8.550;2022-10-14T03:00:32;48.45;;;23.23;;
74512;SDS011;62992;52.052;8.550;2022-10-14T03:02:58;46.47;;;23.67;;
74512;SDS011;62992;52.052;8.550;2022-10-14T03:05:24;48.88;;;23.27;;
74512;SDS011;62992;52.052;8.550;2022-10-14T03:07:49;48.25;;;23.60;;
74512;SDS011;62992;52.052;8.550;2022-10-14T03:10:15;46.60;;;22.58;;
74512;SDS011;62992;52.052;8.550;2022-10-14T03:12:41;51.00;;;23.83;;
74512;SDS011;62992;52.052;8.550;2022-10-14T03:15:07;50.15;;;24.17;;
74512;SDS011;62992;52.052;8.550;2022-10-14T03:17:33;49.95;;;24.75;;
74512;SDS011;62992;52.052;8.550;2022-10-14T03:19:58;50.60;;;23.30;;
74512;SDS011;62992;52.052;8.550;2022-10-14T03:22:24;49.20;;;24.45;;
74512;SDS011;62992;52.052;8.550;2022-10-14T03:24:50;48.63;;;24.60;;
74512;SDS011;62992;52.052;8.550;2022-10-14T03:27:16;47.15;;;23.63;;
74512;SDS011;62992;52.052;8.550;2022-10-14T03:29:41;51.65;;;23.00;;
74512;SDS011;62992;52.052;8.550;2022-10-14T03:32:07;49.28;;;23.33;;
74512;SDS011;62992;52.052;8.550;2022-10-14T03:34:32;53.47;;;23.55;;
74512;SDS011;62992;52.052;8.550;2022-10-14T03:36:58;51.75;;;22.77;;
74512;SDS011;62992;52.052;8.550;2022-10-14T03:39:24;48.33;;;24.05;;
74512;SDS011;62992;52.052;8.550;2022-10-14T03:41:49;45.97;;;23.15;;
74512;SDS011;62992;52.052;8.550;2022-10-14T03:44:15;47.00;;;23.67;;
74512;SDS011;62992;52.052;8.550;2022-10-14T03:46:40;45.97;;;22.05;;
74512;SDS011;62992;52.052;8.550;2022-10-14T03:49:06;50.60;;;22.65;;
74512;SDS011;62992;52.052;8.550;2022-10-14T03:51:32;45.25;;;21.63;;
74512;SDS011;62992;52.052;8.550;2022-10-14T03:53:57;51.88;;;22.73;;
74512;SDS011;62992;52.052;8.550;2022-10-14T03:56:23;45.22;;;22.15;;
74512;SDS011;62992;52.052;8.550;2022-10-14T03:58:48;44.58;;;21.98;;
74512;SDS011;62992;52.052;8.550;2022-10-14T04:01:14;43.78;;;20.65;;
74512;SDS011;62992;52.052;8.550;2022-10-14T04:03:39;44.90;;;20.45;;
74512;SDS011;62992;52.052;8.550;2022-10-14T04:06:05;45.00;;;20.98;;
74512;SDS011;62992;52.052;8.550;2022-10-14T04:08:31;46.05;;;21.95;;
74512;SDS011;62992;52.052;8.550;2022-10-14T04:10:56;46.63;;;20.50;;
74512;SDS011;62992;52.052;8.550;2022-10-14T04:13:22;44.08;;;19.73;;
74512;SDS011;62992;52.052;8.550;2022-10-14T04:15:48;45.55;;;19.83;;
74512;SDS011;62992;52.052;8.550;2022-10-14T04:18:14;43.67;;;20.60;;
74512;SDS011;62992;52.052;8.550;2022-10-14T04:20:40;45.30;;;21.58;;
74512;SDS011;62992;52.052;8.550;2022-10-14T04:23:05;46.70;;;20.98;;
74512;SDS011;62992;52.052;8.550;2022-10-14T04:25:31;49.75;;;21.70;;
74512;SDS011;62992;52.052;8.550;2022-10-14T04:27:57;43.63;;;21.23;;
74512;SDS011;62992;52.052;8.550;2022-10-14T04:30:23;46.50;;;19.90;;
74512;SDS011;62992;52.052;8.550;2022-10-14T04:32:49;44.28;;;20.05;;
74512;SDS011;62992;52.052;8.550;2022-10-14T04:35:14;49.78;;;20.95;;
74512;SDS011;62992;52.052;8.550;2022-10-14T04:37:40;49.78;;;20.20;;
74512;SDS011;62992;52.052;8.550;2022-10-14T04:40:06;47.75;;;22.05;;
74512;SDS011;62992;52.052;8.550;2022-10-14T04:42:32;47.35;;;22.15;;
74512;SDS011;62992;52.052;8.550;2022-10-14T04:44:57;46.78;;;21.23;;
74512;SDS011;62992;52.052;8.550;2022-10-14T04:47:23;52.72;;;21.92;;
74512;SDS011;62992;52.052;8.550;2022-10-14T04:49:49;53.38;;;22.23;;
74512;SDS011;62992;52.052;8.550;2022-10-14T04:52:14;47.08;;;21.70;;
74512;SDS011;62992;52.052;8.550;2022-10-14T04:54:40;50.17;;;22.58;;
74512;SDS011;62992;52.052;8.550;2022-10-14T04:57:05;53.53;;;22.08;;
74512;SDS011;62992;52.052;8.550;2022-10-14T04:59:31;48.00;;;22.35;;
74512;SDS011;62992;52.052;8.550;2022-10-14T05:01:58;53.63;;;22.48;;
74512;SDS011;62992;52.052;8.550;2022-10-14T05:04:23;51.15;;;21.70;;
74512;SDS011;62992;52.052;8.550;2022-10-14T05:06:49;54.95;;;23.52;;
74512;SDS011;62992;52.052;8.550;2022-10-14T05:09:15;48.08;;;21.27;;
74512;SDS011;62992;52.052;8.550;2022-10-14T05:11:40;58.25;;;23.27;;
74512;SDS011;62992;52.052;8.550;2022-10-14T05:14:06;54.00;;;22.77;;
74512;SDS011;62992;52.052;8.550;2022-10-14T05:16:31;51.42;;;22.45;;
74512;SDS011;62992;52.052;8.550;2022-10-14T05:18:57;53.20;;;23.08;;
74512;SDS011;62992;52.052;8.550;2022-10-14T05:21:23;51.05;;;21.55;;
74512;SDS011;62992;52.052;8.550;2022-10-14T05:23:48;54.97;;;21.45;;
74512;SDS011;62992;52.052;8.550;2022-10-14T05:26:14;48.13;;;20.15;;
74512;SDS011;62992;52.052;8.550;2022-10-14T05:28:39;47.03;;;20.95;;
74512;SDS011;62992;52.052;8.550;2022-10-14T05:31:05;52.90;;;21.38;;
74512;SDS011;62992;52.052;8.550;2022-10-14T05:33:31;52.25;;;21.02;;
74512;SDS011;62992;52.052;8.550;2022-10-14T05:35:57;51.97;;;21.50;;
74512;SDS011;62992;52.052;8.550;2022-10-14T05:38:23;46.47;;;20.95;;
74512;SDS011;62992;52.052;8.550;2022-10-14T05:40:55;51.15;;;22.38;;
74512;SDS011;62992;52.052;8.550;2022-10-14T05:43:22;44.33;;;19.77;;
74512;SDS011;62992;52.052;8.550;2022-10-14T05:45:51;48.05;;;19.88;;
74512;SDS011;62992;52.052;8.550;2022-10-14T05:48:17;49.85;;;20.80;;
74512;SDS011;62992;52.052;8.550;2022-10-14T05:50:43;48.67;;;20.75;;
74512;SDS011;62992;52.052;8.550;2022-10-14T05:53:09;49.00;;;21.00;;
74512;SDS011;62992;52.052;8.550;2022-10-14T05:55:35;50.88;;;21.60;;
74512;SDS011;62992;52.052;8.550;2022-10-14T05:58:01;51.72;;;21.38;;
74512;SDS011;62992;52.052;8.550;2022-10-14T06:00:28;53.72;;;21.55;;
74512;SDS011;62992;52.052;8.550;2022-10-14T06:02:55;55.53;;;22.55;;
74512;SDS011;62992;52.052;8.550;2022-10-14T06:05:22;54.15;;;22.60;;
74512;SDS011;62992;52.052;8.550;2022-10-14T06:07:48;52.70;;;22.08;;
74512;SDS011;62992;52.052;8.550;2022-10-14T06:10:14;61.90;;;24.42;;
74512;SDS011;62992;52.052;8.550;2022-10-14T06:12:39;54.95;;;21.45;;
74512;SDS011;62992;52.052;8.550;2022-10-14T06:15:05;61.17;;;24.02;;
74512;SDS011;62992;52.052;8.550;2022-10-14T06:17:31;62.38;;;22.92;;
74512;SDS011;62992;52.052;8.550;2022-10-14T06:19:56;55.58;;;22.67;;
74512;SDS011;62992;52.052;8.550;2022-10-14T06:22:22;59.80;;;22.45;;
74512;SDS011;62992;52.052;8.550;2022-10-14T06:24:48;60.42;;;22.20;;
74512;SDS011;62992;52.052;8.550;2022-10-14T06:27:13;61.40;;;22.20;;
74512;SDS011;62992;52.052;8.550;2022-10-14T06:29:39;64.00;;;23.33;;
74512;SDS011;62992;52.052;8.550;2022-10-14T06:32:05;62.47;;;21.88;;
74512;SDS011;62992;52.052;8.550;2022-10-14T06:34:31;55.60;;;20.58;;
74512;SDS011;62992;52.052;8.550;2022-10-14T06:36:58;55.92;;;21.52;;
74512;SDS011;62992;52.052;8.550;2022-10-14T06:39:23;53.85;;;21.17;;
74512;SDS011;62992;52.052;8.550;2022-10-14T06:41:49;56.50;;;21.60;;
74512;SDS011;62992;52.052;8.550;2022-10-14T06:44:15;51.35;;;21.33;;
74512;SDS011;62992;52.052;8.550;2022-10-14T06:46:40;56.08;;;21.55;;
74512;SDS011;62992;52.052;8.550;2022-10-14T06:49:06;53.20;;;20.73;;
74512;SDS011;62992;52.052;8.550;2022-10-14T06:51:32;53.47;;;20.95;;
74512;SDS011;62992;52.052;8.550;2022-10-14T06:53:58;59.65;;;20.80;;
74512;SDS011;62992;52.052;8.550;2022-10-14T06:56:23;49.55;;;19.20;;
74512;SDS011;62992;52.052;8.550;2022-10-14T06:58:52;46.17;;;19.15;;
74512;SDS011;62992;52.052;8.550;2022-10-14T07:01:19;45.40;;;17.75;;
74512;SDS011;62992;52.052;8.550;2022-10-14T07:03:44;47.20;;;17.20;;
74512;SDS011;62992;52.052;8.550;2022-10-14T07:06:10;49.17;;;18.75;;
74512;SDS011;62992;52.052;8.550;2022-10-14T07:08:36;42.72;;;17.38;;
74512;SDS011;62992;52.052;8.550;2022-10-14T07:11:02;47.72;;;18.85;;
74512;SDS011;62992;52.052;8.550;2022-10-14T07:13:28;44.05;;;17.00;;
74512;SDS011;62992;52.052;8.550;2022-10-14T07:15:54;44.67;;;16.58;;
74512;SDS011;62992;52.052;8.550;2022-10-14T07:18:20;43.55;;;17.63;;
74512;SDS011;62992;52.052;8.550;2022-10-14T07:20:46;44.22;;;17.75;;
74512;SDS011;62992;52.052;8.550;2022-10-14T07:23:11;44.10;;;17.40;;
74512;SDS011;62992;52.052;8.550;2022-10-14T07:25:37;42.13;;;17.38;;
74512;SDS011;62992;52.052;8.550;2022-10-14T07:28:03;43.10;;;17.75;;
74512;SDS011;62992;52.052;8.550;2022-10-14T07:30:29;40.35;;;17.85;;
74512;SDS011;62992;52.052;8.550;2022-10-14T07:32:55;45.28;;;19.17;;
74512;SDS011;62992;52.052;8.550;2022-10-14T07:35:20;42.78;;;18.92;;
74512;SDS011;62992;52.052;8.550;2022-10-14T07:37:46;38.17;;;17.75;;
74512;SDS011;62992;52.052;8.550;2022-10-14T07:40:12;36.95;;;16.95;;
74512;SDS011;62992;52.052;8.550;2022-10-14T07:42:38;34.78;;;15.93;;
74512;SDS011;62992;52.052;8.550;2022-10-14T07:45:04;36.40;;;16.52;;
74512;SDS011;62992;52.052;8.550;2022-10-14T07:47:30;35.15;;;15.95;;
74512;SDS011;62992;52.052;8.550;2022-10-14T07:49:58;31.95;;;15.65;;
74512;SDS011;62992;52.052;8.550;2022-10-14T07:52:24;32.83;;;15.65;;
74512;SDS011;62992;52.052;8.550;2022-10-14T07:54:50;30.60;;;13.45;;
74512;SDS011;62992;52.052;8.550;2022-10-14T07:57:15;25.35;;;13.38;;
74512;SDS011;62992;52.052;8.550;2022-10-14T07:59:41;27.80;;;13.77;;
74512;SDS011;62992;52.052;8.550;2022-10-14T08:02:07;22.63;;;11.32;;
74512;SDS011;62992;52.052;8.550;2022-10-14T08:04:34;25.00;;;12.90;;
74512;SDS011;62992;52.052;8.550;2022-10-14T08:07:00;23.30;;;12.30;;
74512;SDS011;62992;52.052;8.550;2022-10-14T08:09:27;20.15;;;11.02;;
74512;SDS011;62992;52.052;8.550;2022-10-14T08:11:54;19.55;;;11.15;;
74512;SDS011;62992;52.052;8.550;2022-10-14T08:14:19;19.40;;;11.00;;
74512;SDS011;62992;52.052;8.550;2022-10-14T08:16:45;16.00;;;10.00;;
74512;SDS011;62992;52.052;8.550;2022-10-14T08:19:11;15.20;;;9.70;;
74512;SDS011;62992;52.052;8.550;2022-10-14T08:21:37;18.55;;;9.80;;
74512;SDS011;62992;52.052;8.550;2022-10-14T08:24:03;13.63;;;8.15;;
74512;SDS011;62992;52.052;8.550;2022-10-14T08:28:57;14.85;;;8.75;;
74512;SDS011;62992;52.052;8.550;2022-10-14T08:31:23;14.38;;;7.45;;
74512;SDS011;62992;52.052;8.550;2022-10-14T08:33:49;9.60;;;6.68;;
74512;SDS011;62992;52.052;8.550;2022-10-14T08:36:15;9.30;;;5.90;;
74512;SDS011;62992;52.052;8.550;2022-10-14T08:38:42;8.50;;;6.10;;
74512;SDS011;62992;52.052;8.550;2022-10-14T08:43:49;8.40;;;5.60;;
74512;SDS011;62992;52.052;8.550;2022-10-14T08:46:42;8.32;;;5.70;;
74512;SDS011;62992;52.052;8.550;2022-10-14T08:49:34;8.25;;;5.47;;
74512;SDS011;62992;52.052;8.550;2022-10-14T08:52:12;9.88;;;6.45;;
74512;SDS011;62992;52.052;8.550;2022-10-14T08:54:43;11.93;;;6.95;;
74512;SDS011;62992;52.052;8.550;2022-10-14T08:57:13;10.45;;;6.45;;
74512;SDS011;62992;52.052;8.550;2022-10-14T08:59:42;8.35;;;5.82;;
74512;SDS011;62992;52.052;8.550;2022-10-14T09:02:54;8.98;;;5.60;;
74512;SDS011;62992;52.052;8.550;2022-10-14T09:04:55;8.65;;;5.68;;
74512;SDS011;62992;52.052;8.550;2022-10-14T09:07:22;9.48;;;5.47;;
74512;SDS011;62992;52.052;8.550;2022-10-14T09:09:50;6.45;;;4.97;;
74512;SDS011;62992;52.052;8.550;2022-10-14T09:12:21;8.70;;;5.60;;
74512;SDS011;62992;52.052;8.550;2022-10-14T09:14:53;7.03;;;4.90;;
74512;SDS011;62992;52.052;8.550;2022-10-14T09:17:31;6.25;;;4.32;;
74512;SDS011;62992;52.052;8.550;2022-10-14T09:20:12;6.70;;;4.63;;
74512;SDS011;62992;52.052;8.550;2022-10-14T09:22:41;6.90;;;4.53;;
74512;SDS011;62992;52.052;8.550;2022-10-14T09:25:13;6.38;;;4.03;;
74512;SDS011;62992;52.052;8.550;2022-10-14T09:27:40;5.70;;;4.15;;
74512;SDS011;62992;52.052;8.550;2022-10-14T09:30:08;4.95;;;3.92;;
74512;SDS011;62992;52.052;8.550;2022-10-14T09:32:39;4.88;;;4.03;;
74512;SDS011;62992;52.052;8.550;2022-10-14T09:35:24;6.68;;;4.20;;
74512;SDS011;62992;52.052;8.550;2022-10-14T09:37:54;5.63;;;3.97;;
74512;SDS011;62992;52.052;8.550;2022-10-14T09:40:25;5.45;;;3.97;;
74512;SDS011;62992;52.052;8.550;2022-10-14T09:45:27;5.55;;;4.10;;
74512;SDS011;62992;52.052;8.550;2022-10-14T09:47:58;6.47;;;3.85;;
74512;SDS011;62992;52.052;8.550;2022-10-14T09:50:38;4.68;;;3.95;;
74512;SDS011;62992;52.052;8.550;2022-10-14T09:53:13;5.38;;;4.30;;
74512;SDS011;62992;52.052;8.550;2022-10-14T09:55:48;6.10;;;4.43;;
74512;SDS011;62992;52.052;8.550;2022-10-14T09:58:19;6.85;;;4.63;;
74512;SDS011;62992;52.052;8.550;2022-10-14T10:00:59;5.65;;;4.38;;
74512;SDS011;62992;52.052;8.550;2022-10-14T10:03:28;7.18;;;4.32;;
74512;SDS011;62992;52.052;8.550;2022-10-14T10:08:33;4.40;;;3.70;;
74512;SDS011;62992;52.052;8.550;2022-10-14T10:11:02;6.32;;;4.03;;
74512;SDS011;62992;52.052;8.550;2022-10-14T10:13:41;5.57;;;3.40;;
74512;SDS011;62992;52.052;8.550;2022-10-14T10:18:50;4.30;;;3.58;;
74512;SDS011;62992;52.052;8.550;2022-10-14T10:21:18;3.60;;;2.83;;
74512;SDS011;62992;52.052;8.550;2022-10-14T10:26:23;4.47;;;2.78;;
74512;SDS011;62992;52.052;8.550;2022-10-14T10:28:51;4.45;;;3.00;;
74512;SDS011;62992;52.052;8.550;2022-10-14T10:31:39;3.50;;;2.60;;
74512;SDS011;62992;52.052;8.550;2022-10-14T10:39:53;3.72;;;2.83;;
74512;SDS011;62992;52.052;8.550;2022-10-14T10:48:19;5.35;;;3.30;;
74512;SDS011;62992;52.052;8.550;2022-10-14T10:51:04;5.38;;;2.72;;
74512;SDS011;62992;52.052;8.550;2022-10-14T10:53:50;3.42;;;2.58;;
74512;SDS011;62992;52.052;8.550;2022-10-14T11:07:00;3.83;;;2.78;;
74512;SDS011;62992;52.052;8.550;2022-10-14T11:09:59;7.40;;;3.47;;
74512;SDS011;62992;52.052;8.550;2022-10-14T11:15:58;5.15;;;2.40;;
74512;SDS011;62992;52.052;8.550;2022-10-14T11:18:46;2.88;;;2.10;;
74512;SDS011;62992;52.052;8.550;2022-10-14T11:21:28;2.38;;;1.95;;
74512;SDS011;62992;52.052;8.550;2022-10-14T11:24:03;3.25;;;1.88;;
74512;SDS011;62992;52.052;8.550;2022-10-14T11:26:46;2.42;;;1.55;;
74512;SDS011;62992;52.052;8.550;2022-10-14T11:37:17;2.88;;;1.55;;
74512;SDS011;62992;52.052;8.550;2022-10-14T11:44:49;2.75;;;1.52;;
74512;SDS011;62992;52.052;8.550;2022-10-14T11:47:31;1.83;;;1.20;;
74512;SDS011;62992;52.052;8.550;2022-10-14T11:50:02;2.53;;;1.27;;
74512;SDS011;62992;52.052;8.550;2022-10-14T11:52:37;3.75;;;1.23;;
74512;SDS011;62992;52.052;8.550;2022-10-14T11:55:15;1.50;;;1.40;;
74512;SDS011;62992;52.052;8.550;2022-10-14T11:57:48;1.45;;;0.82;;
74512;SDS011;62992;52.052;8.550;2022-10-14T12:08:59;3.83;;;0.80;;
74512;SDS011;62992;52.052;8.550;2022-10-14T12:19:51;1.35;;;0.73;;
74512;SDS011;62992;52.052;8.550;2022-10-14T12:22:19;7.13;;;1.33;;
74512;SDS011;62992;52.052;8.550;2022-10-14T12:24:53;1.17;;;0.60;;
74512;SDS011;62992;52.052;8.550;2022-10-14T12:27:23;0.80;;;0.77;;
74512;SDS011;62992;52.052;8.550;2022-10-14T12:29:51;1.85;;;0.80;;
74512;SDS011;62992;52.052;8.550;2022-10-14T12:32:22;2.13;;;0.60;;
74512;SDS011;62992;52.052;8.550;2022-10-14T12:34:52;0.55;;;0.50;;
74512;SDS011;62992;52.052;8.550;2022-10-14T12:39:48;0.60;;;0.43;;
74512;SDS011;62992;52.052;8.550;2022-10-14T12:42:16;1.58;;;0.70;;
74512;SDS011;62992;52.052;8.550;2022-10-14T12:44:50;0.70;;;0.50;;
74512;SDS011;62992;52.052;8.550;2022-10-14T12:47:30;0.77;;;0.77;;
74512;SDS011;62992;52.052;8.550;2022-10-14T12:50:00;0.88;;;0.60;;
74512;SDS011;62992;52.052;8.550;2022-10-14T12:52:44;0.60;;;0.40;;
74512;SDS011;62992;52.052;8.550;2022-10-14T12:55:14;1.15;;;0.50;;
74512;SDS011;62992;52.052;8.550;2022-10-14T12:57:42;1.00;;;0.55;;
74512;SDS011;62992;52.052;8.550;2022-10-14T13:02:46;0.43;;;0.43;;
74512;SDS011;62992;52.052;8.550;2022-10-14T13:13:45;2.58;;;0.65;;
74512;SDS011;62992;52.052;8.550;2022-10-14T13:16:07;0.75;;;0.65;;
74512;SDS011;62992;52.052;8.550;2022-10-14T13:20:59;1.10;;;1.00;;
74512;SDS011;62992;52.052;8.550;2022-10-14T13:23:28;1.10;;;1.00;;
74512;SDS011;62992;52.052;8.550;2022-10-14T13:32:20;1.30;;;0.80;;
74512;SDS011;62992;52.052;8.550;2022-10-14T13:39:52;19.85;;;2.47;;
74512;SDS011;62992;52.052;8.550;2022-10-14T13:42:21;2.08;;;0.77;;
74512;SDS011;62992;52.052;8.550;2022-10-14T13:44:50;4.40;;;0.88;;
74512;SDS011;62992;52.052;8.550;2022-10-14T13:47:18;2.95;;;1.17;;
74512;SDS011;62992;52.052;8.550;2022-10-14T13:49:45;11.85;;;2.20;;
74512;SDS011;62992;52.052;8.550;2022-10-14T13:52:17;10.70;;;1.80;;
74512;SDS011;62992;52.052;8.550;2022-10-14T13:54:47;18.23;;;2.10;;
74512;SDS011;62992;52.052;8.550;2022-10-14T13:57:14;21.45;;;2.80;;
74512;SDS011;62992;52.052;8.550;2022-10-14T13:59:42;6.15;;;1.95;;
74512;SDS011;62992;52.052;8.550;2022-10-14T14:02:13;8.45;;;2.47;;
74512;SDS011;62992;52.052;8.550;2022-10-14T14:04:41;7.05;;;1.40;;
74512;SDS011;62992;52.052;8.550;2022-10-14T14:07:15;7.60;;;2.33;;
74512;SDS011;62992;52.052;8.550;2022-10-14T14:09:46;3.05;;;1.70;;
74512;SDS011;62992;52.052;8.550;2022-10-14T14:12:16;4.78;;;1.50;;
74512;SDS011;62992;52.052;8.550;2022-10-14T14:14:44;4.65;;;1.33;;
74512;SDS011;62992;52.052;8.550;2022-10-14T14:17:19;1.98;;;0.85;;
74512;SDS011;62992;52.052;8.550;2022-10-14T14:19:47;1.23;;;0.80;;
74512;SDS011;62992;52.052;8.550;2022-10-14T14:22:24;2.55;;;0.77;;
74512;SDS011;62992;52.052;8.550;2022-10-14T14:25:38;2.78;;;1.20;;
74512;SDS011;62992;52.052;8.550;2022-10-14T14:27:51;6.82;;;1.67;;
74512;SDS011;62992;52.052;8.550;2022-10-14T14:30:34;3.03;;;1.25;;
74512;SDS011;62992;52.052;8.550;2022-10-14T14:33:02;4.05;;;1.88;;
74512;SDS011;62992;52.052;8.550;2022-10-14T14:35:31;2.25;;;1.00;;
74512;SDS011;62992;52.052;8.550;2022-10-14T14:37:56;2.85;;;1.02;;
74512;SDS011;62992;52.052;8.550;2022-10-14T14:40:23;1.50;;;1.08;;
74512;SDS011;62992;52.052;8.550;2022-10-14T14:42:55;1.58;;;1.10;;
74512;SDS011;62992;52.052;8.550;2022-10-14T14:45:27;2.72;;;1.00;;
74512;SDS011;62992;52.052;8.550;2022-10-14T14:48:00;3.28;;;1.00;;
74512;SDS011;62992;52.052;8.550;2022-10-14T14:50:32;2.50;;;0.90;;
74512;SDS011;62992;52.052;8.550;2022-10-14T14:53:11;1.67;;;1.30;;
74512;SDS011;62992;52.052;8.550;2022-10-14T14:58:21;0.95;;;0.80;;
74512;SDS011;62992;52.052;8.550;2022-10-14T15:00:56;4.63;;;1.85;;
74512;SDS011;62992;52.052;8.550;2022-10-14T15:03:24;3.45;;;1.45;;
74512;SDS011;62992;52.052;8.550;2022-10-14T15:06:02;3.55;;;2.42;;
74512;SDS011;62992;52.052;8.550;2022-10-14T15:08:35;1.77;;;1.20;;
74512;SDS011;62992;52.052;8.550;2022-10-14T15:11:02;3.95;;;0.85;;
74512;SDS011;62992;52.052;8.550;2022-10-14T15:13:41;1.67;;;1.15;;
74512;SDS011;62992;52.052;8.550;2022-10-14T15:16:11;2.45;;;1.23;;
74512;SDS011;62992;52.052;8.550;2022-10-14T15:18:37;3.85;;;1.50;;
74512;SDS011;62992;52.052;8.550;2022-10-14T15:23:44;4.25;;;1.50;;
74512;SDS011;62992;52.052;8.550;2022-10-14T15:31:36;3.00;;;1.70;;
74512;SDS011;62992;52.052;8.550;2022-10-14T15:34:03;3.95;;;2.45;;
74512;SDS011;62992;52.052;8.550;2022-10-14T15:36:31;4.80;;;2.80;;
74512;SDS011;62992;52.052;8.550;2022-10-14T15:38:58;6.15;;;3.03;;
74512;SDS011;62992;52.052;8.550;2022-10-14T15:41:25;5.82;;;3.30;;
74512;SDS011;62992;52.052;8.550;2022-10-14T15:43:51;4.97;;;2.90;;
74512;SDS011;62992;52.052;8.550;2022-10-14T15:46:17;4.85;;;3.38;;
74512;SDS011;62992;52.052;8.550;2022-10-14T15:49:02;5.53;;;3.42;;
74512;SDS011;62992;52.052;8.550;2022-10-14T15:51:35;6.68;;;4.00;;
74512;SDS011;62992;52.052;8.550;2022-10-14T15:54:01;6.18;;;3.60;;
74512;SDS011;62992;52.052;8.550;2022-10-14T15:56:26;6.05;;;3.90;;
74512;SDS011;62992;52.052;8.550;2022-10-14T15:58:53;6.25;;;4.07;;
74512;SDS011;62992;52.052;8.550;2022-10-14T16:01:19;6.63;;;4.18;;
74512;SDS011;62992;52.052;8.550;2022-10-14T16:03:47;7.28;;;4.22;;
74512;SDS011;62992;52.052;8.550;2022-10-14T16:06:13;8.80;;;5.15;;
74512;SDS011;62992;52.052;8.550;2022-10-14T16:08:40;8.57;;;5.03;;
74512;SDS011;62992;52.052;8.550;2022-10-14T16:11:10;7.68;;;4.40;;
74512;SDS011;62992;52.052;8.550;2022-10-14T16:13:50;6.80;;;4.63;;
74512;SDS011;62992;52.052;8.550;2022-10-14T16:16:18;5.88;;;3.92;;
74512;SDS011;62992;52.052;8.550;2022-10-14T16:18:55;7.40;;;4.53;;
74512;SDS011;62992;52.052;8.550;2022-10-14T16:21:21;6.30;;;4.75;;
74512;SDS011;62992;52.052;8.550;2022-10-14T16:23:46;6.85;;;4.70;;
74512;SDS011;62992;52.052;8.550;2022-10-14T16:26:12;7.03;;;4.45;;
74512;SDS011;62992;52.052;8.550;2022-10-14T16:28:38;9.00;;;5.07;;
74512;SDS011;62992;52.052;8.550;2022-10-14T16:31:04;9.93;;;5.10;;
74512;SDS011;62992;52.052;8.550;2022-10-14T16:33:30;8.18;;;4.78;;
74512;SDS011;62992;52.052;8.550;2022-10-14T16:35:56;7.47;;;5.40;;
74512;SDS011;62992;52.052;8.550;2022-10-14T16:38:24;8.60;;;5.47;;
74512;SDS011;62992;52.052;8.550;2022-10-14T16:40:54;7.35;;;5.65;;
74512;SDS011;62992;52.052;8.550;2022-10-14T16:43:20;8.73;;;5.47;;
74512;SDS011;62992;52.052;8.550;2022-10-14T16:45:45;8.30;;;6.25;;
74512;SDS011;62992;52.052;8.550;2022-10-14T16:48:11;9.80;;;6.43;;
74512;SDS011;62992;52.052;8.550;2022-10-14T16:50:36;11.98;;;7.10;;
74512;SDS011;62992;52.052;8.550;2022-10-14T16:53:02;12.57;;;7.45;;
74512;SDS011;62992;52.052;8.550;2022-10-14T16:55:46;9.13;;;6.40;;
74512;SDS011;62992;52.052;8.550;2022-10-14T16:58:12;10.68;;;7.18;;
74512;SDS011;62992;52.052;8.550;2022-10-14T17:00:37;8.93;;;6.15;;
74512;SDS011;62992;52.052;8.550;2022-10-14T17:03:03;11.02;;;6.90;;
74512;SDS011;62992;52.052;8.550;2022-10-14T17:05:28;10.73;;;7.30;;